createdAt,value
2018-02-15T00:01:50.971Z,-1.65
2018-02-15T00:04:16.849Z,-1.64
2018-02-15T00:06:42.764Z,-1.63
2018-02-15T00:09:08.725Z,-1.64
2018-02-15T00:11:34.598Z,-1.67
2018-02-15T00:14:00.533Z,-1.66
2018-02-15T00:16:26.405Z,-1.65
2018-02-15T00:18:52.349Z,-1.66
2018-02-15T00:21:18.212Z,-1.65
2018-02-15T00:23:44.081Z,-1.64
2018-02-15T00:26:09.996Z,-1.65
2018-02-15T00:28:35.860Z,-1.62
2018-02-15T00:31:01.729Z,-1.64
2018-02-15T00:33:27.638Z,-1.63
2018-02-15T00:35:53.501Z,-1.66
2018-02-15T00:38:19.376Z,-1.66
2018-02-15T00:40:45.293Z,-1.65
2018-02-15T00:43:11.153Z,-1.65
2018-02-15T00:45:37.026Z,-1.67
2018-02-15T00:48:02.985Z,-1.68
2018-02-15T00:50:28.850Z,-1.67
2018-02-15T00:52:54.751Z,-1.67
2018-02-15T00:55:20.621Z,-1.67
2018-02-15T00:57:46.549Z,-1.65
2018-02-15T01:00:12.488Z,-1.65
2018-02-15T01:02:38.352Z,-1.65
2018-02-15T01:05:04.230Z,-1.65
2018-02-15T01:07:30.140Z,-1.65
2018-02-15T01:09:56.073Z,-1.62
2018-02-15T01:12:22.316Z,-1.58
2018-02-15T01:14:48.181Z,-1.58
2018-02-15T01:17:14.080Z,-1.58
2018-02-15T01:19:39.983Z,-1.61
2018-02-15T01:22:05.843Z,-1.61
2018-02-15T01:24:31.708Z,-1.64
2018-02-15T01:26:57.620Z,-1.65
2018-02-15T01:29:23.485Z,-1.66
2018-02-15T01:31:49.352Z,-1.67
2018-02-15T01:34:15.266Z,-1.67
2018-02-15T01:36:41.137Z,-1.67
2018-02-15T01:39:07.013Z,-1.68
2018-02-15T01:41:32.929Z,-1.71
2018-02-15T01:43:58.836Z,-1.73
2018-02-15T01:46:24.732Z,-1.76
2018-02-15T01:48:50.609Z,-1.79
2018-02-15T01:51:16.541Z,-1.80
2018-02-15T01:53:42.411Z,-1.82
2018-02-15T01:56:08.303Z,-1.83
2018-02-15T01:58:34.269Z,-1.83
2018-02-15T02:01:00.168Z,-1.80
2018-02-15T02:03:26.069Z,-1.86
2018-02-15T02:05:51.993Z,-1.88
2018-02-15T02:08:17.898Z,-1.89
2018-02-15T02:10:43.756Z,-1.88
2018-02-15T02:13:09.671Z,-1.90
2018-02-15T02:15:35.527Z,-1.89
2018-02-15T02:18:01.400Z,-1.91
2018-02-15T02:20:27.316Z,-1.89
2018-02-15T02:22:53.172Z,-1.91
2018-02-15T02:25:19.042Z,-1.90
2018-02-15T02:27:44.948Z,-1.91
2018-02-15T02:30:10.822Z,-1.91
2018-02-15T02:32:36.737Z,-1.91
2018-02-15T02:35:02.681Z,-1.90
2018-02-15T02:37:28.548Z,-1.90
2018-02-15T02:39:54.407Z,-1.89
2018-02-15T02:42:20.300Z,-1.91
2018-02-15T02:44:46.176Z,-1.89
2018-02-15T02:47:12.088Z,-1.87
2018-02-15T02:49:37.992Z,-1.87
2018-02-15T02:52:03.857Z,-1.87
2018-02-15T02:54:29.721Z,-1.86
2018-02-15T02:56:55.634Z,-1.85
2018-02-15T02:59:21.581Z,-1.89
2018-02-15T03:01:47.545Z,-1.91
2018-02-15T03:04:13.450Z,-1.91
2018-02-15T03:06:39.329Z,-1.87
2018-02-15T03:09:05.267Z,-1.91
2018-02-15T03:11:31.133Z,-1.87
2018-02-15T03:13:57.008Z,-1.90
2018-02-15T03:16:22.987Z,-1.91
2018-02-15T03:18:48.936Z,-1.91
2018-02-15T03:21:14.804Z,-1.91
2018-02-15T03:23:40.807Z,-1.88
2018-02-15T03:26:06.684Z,-1.88
2018-02-15T03:28:32.565Z,-1.90
2018-02-15T03:30:58.518Z,-1.90
2018-02-15T03:33:24.425Z,-1.90
2018-02-15T03:35:50.393Z,-1.91
2018-02-15T03:38:16.269Z,-1.89
2018-02-15T03:40:42.171Z,-1.89
2018-02-15T03:43:08.036Z,-1.90
2018-02-15T03:45:33.936Z,-1.91
2018-02-15T03:47:59.818Z,-1.92
2018-02-15T03:50:25.740Z,-1.91
2018-02-15T03:52:51.605Z,-1.89
2018-02-15T03:55:17.473Z,-1.89
2018-02-15T03:57:43.381Z,-1.90
2018-02-15T04:00:09.275Z,-1.88
2018-02-15T04:02:35.190Z,-1.87
2018-02-15T04:05:01.067Z,-1.84
2018-02-15T04:07:26.985Z,-1.83
2018-02-15T04:09:52.860Z,-1.84
2018-02-15T04:12:18.867Z,-1.82
2018-02-15T04:14:44.780Z,-1.84
2018-02-15T04:17:10.742Z,-1.79
2018-02-15T04:19:37.742Z,-1.81
2018-02-15T04:22:03.639Z,-1.80
2018-02-15T04:24:29.562Z,-1.80
2018-02-15T04:26:55.424Z,-1.80
2018-02-15T04:29:21.516Z,-1.79
2018-02-15T04:31:47.392Z,-1.79
2018-02-15T04:34:13.310Z,-1.81
2018-02-15T04:36:39.222Z,-1.80
2018-02-15T04:39:05.083Z,-1.82
2018-02-15T04:41:31.008Z,-1.78
2018-02-15T04:43:56.881Z,-1.78
2018-02-15T04:46:22.747Z,-1.79
2018-02-15T04:48:48.648Z,-1.81
2018-02-15T04:51:14.520Z,-1.81
2018-02-15T04:53:40.447Z,-1.82
2018-02-15T04:56:06.356Z,-1.81
2018-02-15T04:58:32.225Z,-1.74
2018-02-15T05:00:58.144Z,-1.79
2018-02-15T05:03:24.021Z,-1.79
2018-02-15T05:05:49.904Z,-1.78
2018-02-15T05:08:15.837Z,-1.78
2018-02-15T05:10:41.746Z,-1.77
2018-02-15T05:13:07.604Z,-1.77
2018-02-15T05:15:33.524Z,-1.78
2018-02-15T05:17:59.415Z,-1.79
2018-02-15T05:20:25.275Z,-1.80
2018-02-15T05:22:51.179Z,-1.80
2018-02-15T05:25:17.048Z,-1.79
2018-02-15T05:27:42.958Z,-1.80
2018-02-15T05:30:08.824Z,-1.79
2018-02-15T05:32:34.700Z,-1.80
2018-02-15T05:35:00.620Z,-1.82
2018-02-15T05:37:26.476Z,-1.81
2018-02-15T05:39:52.349Z,-1.80
2018-02-15T05:42:18.260Z,-1.77
2018-02-15T05:44:44.154Z,-1.80
2018-02-15T05:47:10.095Z,-1.82
2018-02-15T05:49:35.961Z,-1.80
2018-02-15T05:52:01.831Z,-1.78
2018-02-15T05:54:27.732Z,-1.79
2018-02-15T05:56:53.592Z,-1.82
2018-02-15T05:59:19.509Z,-1.81
2018-02-15T06:01:45.381Z,-1.82
2018-02-15T06:04:11.280Z,-1.79
2018-02-15T06:06:37.193Z,-1.78
2018-02-15T06:09:03.137Z,-1.77
2018-02-15T06:11:29.013Z,-1.73
2018-02-15T06:13:54.933Z,-1.75
2018-02-15T06:16:20.796Z,-1.74
2018-02-15T06:18:46.736Z,-1.72
2018-02-15T06:21:12.733Z,-1.67
2018-02-15T06:23:38.796Z,-1.73
2018-02-15T06:26:04.854Z,-1.73
2018-02-15T06:28:30.869Z,-1.70
2018-02-15T06:30:56.916Z,-1.68
2018-02-15T06:33:22.980Z,-1.66
2018-02-15T06:35:49.032Z,-1.65
2018-02-15T06:38:15.061Z,-1.58
2018-02-15T06:40:41.124Z,-1.59
2018-02-15T06:43:07.130Z,-1.57
2018-02-15T06:45:33.157Z,-1.54
2018-02-15T06:47:59.256Z,-1.48
2018-02-15T06:50:25.311Z,-1.45
2018-02-15T06:52:51.319Z,-1.42
2018-02-15T06:55:17.377Z,-1.42
2018-02-15T06:57:43.532Z,-1.42
2018-02-15T07:00:09.548Z,-1.43
2018-02-15T07:02:35.560Z,-1.40
2018-02-15T07:05:01.611Z,-1.38
2018-02-15T07:07:27.636Z,-1.38
2018-02-15T07:09:53.680Z,-1.33
2018-02-15T07:12:20.739Z,-1.30
2018-02-15T07:14:46.856Z,-1.29
2018-02-15T07:17:12.873Z,-1.28
2018-02-15T07:19:38.924Z,-1.25
2018-02-15T07:22:04.940Z,-1.21
2018-02-15T07:24:30.946Z,-1.15
2018-02-15T07:26:57.000Z,-1.15
2018-02-15T07:29:23.023Z,-1.08
2018-02-15T07:31:49.124Z,-1.02
2018-02-15T07:34:15.201Z,-0.92
2018-02-15T07:36:41.260Z,-0.82
2018-02-15T07:39:07.277Z,-0.73
2018-02-15T07:41:33.340Z,-0.64
2018-02-15T07:43:59.356Z,-0.56
2018-02-15T07:46:25.376Z,-0.51
2018-02-15T07:48:51.464Z,-0.47
2018-02-15T07:51:17.515Z,-0.43
2018-02-15T07:53:43.564Z,-0.37
2018-02-15T07:56:09.643Z,-0.31
2018-02-15T07:58:35.676Z,-0.14
2018-02-15T08:01:01.706Z,0.01
2018-02-15T08:03:27.821Z,0.18
2018-02-15T08:05:53.965Z,0.26
2018-02-15T08:08:19.984Z,0.32
2018-02-15T08:10:46.083Z,0.36
2018-02-15T08:13:12.122Z,0.49
2018-02-15T08:15:38.177Z,0.53
2018-02-15T08:18:04.231Z,0.63
2018-02-15T08:20:30.304Z,0.79
2018-02-15T08:22:56.328Z,0.87
2018-02-15T08:25:22.347Z,0.89
2018-02-15T08:27:48.404Z,0.96
2018-02-15T08:30:14.531Z,1.04
2018-02-15T08:32:40.561Z,1.13
2018-02-15T08:35:06.566Z,1.23
2018-02-15T08:37:32.631Z,1.23
2018-02-15T08:39:58.668Z,1.18
2018-02-15T08:42:24.700Z,1.10
2018-02-15T08:44:50.772Z,1.05
2018-02-15T08:47:16.829Z,1.04
2018-02-15T08:49:42.911Z,0.98
2018-02-15T08:52:09.072Z,0.90
2018-02-15T08:54:35.137Z,0.81
2018-02-15T08:57:01.177Z,0.67
2018-02-15T08:59:27.239Z,0.59
2018-02-15T09:01:53.371Z,0.46
2018-02-15T09:04:19.392Z,0.39
2018-02-15T09:06:45.613Z,0.42
2018-02-15T09:09:11.740Z,0.46
2018-02-15T09:11:37.825Z,0.51
2018-02-15T09:14:03.929Z,0.62
2018-02-15T09:16:30.067Z,0.77
2018-02-15T09:18:56.151Z,0.92
2018-02-15T09:21:22.212Z,1.04
2018-02-15T09:23:48.286Z,1.13
2018-02-15T09:26:14.393Z,1.25
2018-02-15T09:28:40.419Z,1.23
2018-02-15T09:31:06.467Z,1.19
2018-02-15T09:33:32.603Z,1.43
2018-02-15T09:35:58.895Z,1.46
2018-02-15T09:38:24.945Z,1.74
2018-02-15T09:40:51.042Z,1.96
2018-02-15T09:43:17.097Z,2.24
2018-02-15T09:45:43.176Z,2.27
2018-02-15T09:48:09.240Z,2.34
2018-02-15T09:50:35.264Z,2.39
2018-02-15T09:53:01.333Z,2.72
2018-02-15T09:55:27.627Z,3.26
2018-02-15T09:57:53.652Z,3.77
2018-02-15T10:00:19.865Z,4.19
2018-02-15T10:02:45.914Z,4.48
2018-02-15T10:05:12.005Z,4.93
2018-02-15T10:07:38.096Z,5.25
2018-02-15T10:10:04.156Z,5.73
2018-02-15T10:12:30.220Z,6.08
2018-02-15T10:14:56.311Z,6.32
2018-02-15T10:17:22.356Z,6.39
2018-02-15T10:19:48.413Z,6.69
2018-02-15T10:22:14.515Z,7.03
2018-02-15T10:24:40.567Z,7.57
2018-02-15T10:27:06.625Z,8.11
2018-02-15T10:29:32.717Z,8.77
2018-02-15T10:31:58.762Z,8.77
2018-02-15T10:34:24.844Z,8.45
2018-02-15T10:36:50.936Z,8.61
2018-02-15T10:39:23.943Z,8.89
2018-02-15T10:41:50.899Z,9.44
2018-02-15T10:44:16.975Z,9.66
2018-02-15T10:46:43.074Z,9.87
2018-02-15T10:49:09.168Z,10.11
2018-02-15T10:51:35.211Z,10.16
2018-02-15T10:54:01.493Z,9.98
2018-02-15T10:56:27.554Z,9.93
2018-02-15T10:58:53.601Z,9.43
2018-02-15T11:01:26.180Z,8.68
2018-02-15T11:03:58.357Z,7.82
2018-02-15T11:06:24.465Z,7.08
2018-02-15T11:08:50.556Z,6.48
2018-02-15T11:11:16.633Z,6.11
2018-02-15T11:13:42.743Z,5.84
2018-02-15T11:16:08.857Z,5.68
2018-02-15T11:18:34.915Z,5.45
2018-02-15T11:21:01.029Z,5.42
2018-02-15T11:23:27.075Z,5.40
2018-02-15T11:25:53.159Z,5.31
2018-02-15T11:28:19.269Z,5.30
2018-02-15T11:30:45.345Z,5.36
2018-02-15T11:33:11.392Z,5.40
2018-02-15T11:35:37.484Z,5.54
2018-02-15T11:38:03.553Z,5.63
2018-02-15T11:40:29.605Z,5.75
2018-02-15T11:42:55.818Z,5.76
2018-02-15T11:45:21.881Z,5.74
2018-02-15T11:47:47.929Z,5.62
2018-02-15T11:50:14.066Z,5.55
2018-02-15T11:52:40.156Z,5.58
2018-02-15T11:55:06.433Z,5.58
2018-02-15T11:57:32.507Z,5.67
2018-02-15T11:59:58.551Z,5.77
2018-02-15T12:02:24.627Z,5.68
2018-02-15T12:04:50.692Z,5.53
2018-02-15T12:07:16.745Z,5.47
2018-02-15T12:09:42.836Z,5.35
2018-02-15T12:12:09.007Z,5.25
2018-02-15T12:14:35.092Z,5.25
2018-02-15T12:17:01.192Z,5.36
2018-02-15T12:19:27.271Z,5.60
2018-02-15T12:21:53.320Z,5.88
2018-02-15T12:24:19.416Z,6.06
2018-02-15T12:26:45.468Z,6.19
2018-02-15T12:29:11.572Z,6.15
2018-02-15T12:31:37.619Z,6.13
2018-02-15T12:34:03.689Z,6.24
2018-02-15T12:36:29.792Z,6.29
2018-02-15T12:38:55.844Z,6.34
2018-02-15T12:41:21.887Z,6.47
2018-02-15T12:43:48.021Z,6.48
2018-02-15T12:46:13.892Z,6.54
2018-02-15T12:48:39.742Z,6.61
2018-02-15T12:51:05.670Z,6.55
2018-02-15T12:53:31.503Z,6.56
2018-02-15T12:55:57.348Z,6.56
2018-02-15T12:58:23.245Z,6.57
2018-02-15T13:00:49.133Z,6.66
2018-02-15T13:03:14.980Z,6.75
2018-02-15T13:05:40.889Z,6.75
2018-02-15T13:08:06.805Z,6.61
2018-02-15T13:10:32.716Z,6.47
2018-02-15T13:13:11.028Z,6.32
2018-02-15T13:15:49.169Z,6.31
2018-02-15T13:18:15.032Z,6.26
2018-02-15T13:20:40.892Z,6.25
2018-02-15T13:23:06.794Z,6.23
2018-02-15T13:25:32.721Z,6.18
2018-02-15T13:28:10.769Z,6.10
2018-02-15T13:30:36.707Z,5.95
2018-02-15T13:33:02.574Z,5.76
2018-02-15T13:35:28.429Z,5.65
2018-02-15T13:37:54.310Z,5.56
2018-02-15T13:40:20.162Z,5.49
2018-02-15T13:42:46.031Z,5.43
2018-02-15T13:45:11.967Z,5.34
2018-02-15T13:47:37.887Z,5.26
2018-02-15T13:50:03.752Z,5.17
2018-02-15T13:52:30.685Z,5.10
2018-02-15T13:54:56.602Z,5.01
2018-02-15T13:57:22.465Z,4.96
2018-02-15T13:59:48.317Z,4.92
2018-02-15T14:02:14.239Z,4.89
2018-02-15T14:04:40.445Z,4.91
2018-02-15T14:07:06.288Z,4.92
2018-02-15T14:09:32.177Z,4.92
2018-02-15T14:11:58.427Z,4.92
2018-02-15T14:14:24.423Z,4.88
2018-02-15T14:16:50.289Z,4.83
2018-02-15T14:19:16.172Z,4.79
2018-02-15T14:21:42.017Z,4.68
2018-02-15T14:24:07.902Z,4.64
2018-02-15T14:26:33.804Z,4.57
2018-02-15T14:28:59.685Z,4.52
2018-02-15T14:31:25.537Z,4.44
2018-02-15T14:33:51.485Z,4.38
2018-02-15T14:36:17.337Z,4.32
2018-02-15T14:38:43.178Z,4.25
2018-02-15T14:41:09.073Z,4.23
2018-02-15T14:43:34.957Z,4.20
2018-02-15T14:46:00.800Z,4.20
2018-02-15T14:48:26.680Z,4.19
2018-02-15T14:50:52.572Z,4.18
2018-02-15T14:53:18.419Z,4.18
2018-02-15T14:55:44.341Z,4.17
2018-02-15T14:58:10.233Z,4.19
2018-02-15T15:00:36.087Z,4.21
2018-02-15T15:03:02.014Z,4.29
2018-02-15T15:05:27.900Z,4.28
2018-02-15T15:07:53.740Z,4.27
2018-02-15T15:10:19.576Z,4.26
2018-02-15T15:12:45.484Z,4.22
2018-02-15T15:15:11.333Z,4.19
2018-02-15T15:17:37.209Z,4.11
2018-02-15T15:20:03.108Z,4.05
2018-02-15T15:22:28.968Z,4.02
2018-02-15T15:24:54.817Z,3.97
2018-02-15T15:27:20.773Z,3.91
2018-02-15T15:29:46.623Z,3.88
2018-02-15T15:32:12.480Z,3.82
2018-02-15T15:34:38.464Z,3.79
2018-02-15T15:37:04.324Z,3.73
2018-02-15T15:39:30.209Z,3.71
2018-02-15T15:41:56.504Z,3.69
2018-02-15T15:44:22.459Z,3.70
2018-02-15T15:46:48.673Z,3.69
2018-02-15T15:49:14.877Z,3.66
2018-02-15T15:51:40.879Z,3.65
2018-02-15T15:54:06.819Z,3.63
2018-02-15T15:56:32.668Z,3.63
2018-02-15T15:58:58.621Z,3.61
2018-02-15T16:01:24.493Z,3.60
2018-02-15T16:03:50.390Z,3.62
2018-02-15T16:06:16.248Z,3.64
2018-02-15T16:08:42.127Z,3.65
2018-02-15T16:11:07.972Z,3.62
2018-02-15T16:13:33.841Z,3.59
2018-02-15T16:15:59.854Z,3.55
2018-02-15T16:18:25.850Z,3.52
2018-02-15T16:20:51.756Z,3.48
2018-02-15T16:23:17.644Z,3.47
2018-02-15T16:25:43.529Z,3.45
2018-02-15T16:28:09.380Z,3.43
2018-02-15T16:30:35.365Z,3.43
2018-02-15T16:33:01.229Z,3.42
2018-02-15T16:35:27.068Z,3.42
2018-02-15T16:37:52.965Z,3.40
2018-02-15T16:40:18.821Z,3.38
2018-02-15T16:42:44.756Z,3.38
2018-02-15T16:45:10.652Z,3.33
2018-02-15T16:47:36.509Z,3.31
2018-02-15T16:50:02.365Z,3.28
2018-02-15T16:52:28.247Z,3.24
2018-02-15T16:54:54.190Z,3.22
2018-02-15T16:57:20.132Z,3.23
2018-02-15T16:59:46.118Z,3.22
2018-02-15T17:02:12.033Z,3.23
2018-02-15T17:04:37.945Z,3.24
2018-02-15T17:07:03.946Z,3.22
2018-02-15T17:09:29.800Z,3.21
2018-02-15T17:11:55.643Z,3.22
2018-02-15T17:14:21.597Z,3.23
2018-02-15T17:16:47.491Z,3.22
2018-02-15T17:19:13.408Z,3.20
2018-02-15T17:21:39.310Z,3.22
2018-02-15T17:24:05.474Z,3.20
2018-02-15T17:26:31.419Z,3.22
2018-02-15T17:28:57.404Z,3.35
2018-02-15T17:31:23.390Z,3.31
2018-02-15T17:33:49.272Z,3.31
2018-02-15T17:36:15.507Z,3.26
2018-02-15T17:38:41.394Z,3.24
2018-02-15T17:41:07.323Z,3.19
2018-02-15T17:43:33.365Z,3.18
2018-02-15T17:45:59.313Z,3.13
2018-02-15T17:48:25.170Z,3.05
2018-02-15T17:50:51.074Z,3.00
2018-02-15T17:53:17.001Z,2.97
2018-02-15T17:55:42.949Z,2.94
2018-02-15T17:58:08.862Z,2.94
2018-02-15T18:00:34.718Z,2.91
2018-02-15T18:03:00.561Z,2.91
2018-02-15T18:05:26.444Z,2.82
2018-02-15T18:07:52.400Z,2.75
2018-02-15T18:10:18.235Z,2.70
2018-02-15T18:12:44.112Z,2.70
2018-02-15T18:15:09.961Z,2.69
2018-02-15T18:17:35.813Z,2.67
2018-02-15T18:20:01.813Z,2.71
2018-02-15T18:22:27.692Z,2.71
2018-02-15T18:24:53.540Z,2.71
2018-02-15T18:27:19.445Z,2.69
2018-02-15T18:29:45.279Z,2.69
2018-02-15T18:32:11.137Z,2.67
2018-02-15T18:34:37.098Z,2.67
2018-02-15T18:37:02.985Z,2.66
2018-02-15T18:39:28.913Z,2.67
2018-02-15T18:41:54.801Z,2.66
2018-02-15T18:44:20.670Z,2.64
2018-02-15T18:46:46.584Z,2.63
2018-02-15T18:49:12.502Z,2.67
2018-02-15T18:51:38.368Z,2.65
2018-02-15T18:54:04.477Z,2.70
2018-02-15T18:56:30.463Z,2.65
2018-02-15T18:58:56.365Z,2.69
2018-02-15T19:01:22.220Z,2.66
2018-02-15T19:03:48.128Z,2.70
2018-02-15T19:06:13.996Z,2.70
2018-02-15T19:08:39.926Z,2.66
2018-02-15T19:11:05.888Z,2.64
2018-02-15T19:13:31.728Z,2.65
2018-02-15T19:15:57.575Z,2.61
2018-02-15T19:18:23.573Z,2.58
2018-02-15T19:20:49.518Z,2.64
2018-02-15T19:23:15.422Z,2.58
2018-02-15T19:25:41.324Z,2.52
2018-02-15T19:28:07.940Z,2.51
2018-02-15T19:30:33.801Z,2.50
2018-02-15T19:32:59.780Z,2.45
2018-02-15T19:35:25.685Z,2.40
2018-02-15T19:37:51.524Z,2.37
2018-02-15T19:40:17.404Z,2.38
2018-02-15T19:42:43.235Z,2.36
2018-02-15T19:45:09.224Z,2.34
2018-02-15T19:47:35.209Z,2.32
2018-02-15T19:50:01.048Z,2.30
2018-02-15T19:52:27.109Z,2.28
2018-02-15T19:54:53.013Z,2.33
2018-02-15T19:57:18.984Z,2.33
2018-02-15T19:59:44.888Z,2.34
2018-02-15T20:02:10.798Z,2.32
2018-02-15T20:04:36.650Z,2.30
2018-02-15T20:07:02.517Z,2.31
2018-02-15T20:09:28.484Z,2.30
2018-02-15T20:11:54.416Z,2.34
2018-02-15T20:14:20.264Z,2.37
2018-02-15T20:16:46.157Z,2.41
2018-02-15T20:19:13.408Z,2.42
2018-02-15T20:21:39.371Z,2.43
2018-02-15T20:24:05.632Z,2.43
2018-02-15T20:26:37.669Z,2.45
2018-02-15T20:29:03.847Z,2.46
2018-02-15T20:31:29.802Z,2.47
2018-02-15T20:33:55.969Z,2.42
2018-02-15T20:36:22.731Z,2.43
2018-02-15T20:38:54.823Z,2.39
2018-02-15T20:41:20.758Z,2.41
2018-02-15T20:43:46.757Z,2.40
2018-02-15T20:46:12.807Z,2.38
2018-02-15T20:48:38.683Z,2.33
2018-02-15T20:51:10.976Z,2.33
2018-02-15T20:53:43.191Z,2.29
2018-02-15T20:56:09.104Z,2.24
2018-02-15T20:58:34.975Z,2.20
2018-02-15T21:01:00.873Z,2.17
2018-02-15T21:03:26.739Z,2.12
2018-02-15T21:05:52.607Z,2.13
2018-02-15T21:08:18.583Z,2.13
2018-02-15T21:10:44.449Z,2.13
2018-02-15T21:13:10.301Z,2.10
2018-02-15T21:15:36.217Z,2.12
2018-02-15T21:18:02.080Z,2.10
2018-02-15T21:20:27.936Z,2.12
2018-02-15T21:22:53.812Z,2.10
2018-02-15T21:25:19.668Z,2.09
2018-02-15T21:27:45.679Z,2.10
2018-02-15T21:30:11.609Z,2.13
2018-02-15T21:32:37.493Z,2.13
2018-02-15T21:35:03.428Z,2.15
2018-02-15T21:37:29.419Z,2.13
2018-02-15T21:39:55.408Z,2.15
2018-02-15T21:42:21.265Z,2.15
2018-02-15T21:44:47.254Z,2.18
2018-02-15T21:47:13.393Z,2.20
2018-02-15T21:49:39.256Z,2.21
2018-02-15T21:52:05.147Z,2.23
2018-02-15T21:54:31.054Z,2.26
2018-02-15T21:56:57.014Z,2.27
2018-02-15T21:59:22.916Z,2.28
2018-02-15T22:01:48.853Z,2.34
2018-02-15T22:04:14.782Z,2.37
2018-02-15T22:06:40.721Z,2.37
2018-02-15T22:09:06.673Z,2.35
2018-02-15T22:11:32.521Z,2.35
2018-02-15T22:13:58.469Z,2.40
2018-02-15T22:16:24.311Z,2.40
2018-02-15T22:18:51.007Z,2.39
2018-02-15T22:21:16.988Z,2.40
2018-02-15T22:23:42.829Z,2.42
2018-02-15T22:26:08.684Z,2.48
2018-02-15T22:28:34.571Z,2.35
2018-02-15T22:31:00.408Z,2.34
2018-02-15T22:33:26.303Z,2.34
2018-02-15T22:35:52.179Z,2.31
2018-02-15T22:38:18.017Z,2.29
2018-02-15T22:40:43.868Z,2.30
2018-02-15T22:43:09.832Z,2.35
2018-02-15T22:45:35.669Z,2.28
2018-02-15T22:48:01.517Z,2.28
2018-02-15T22:50:27.415Z,2.27
2018-02-15T22:52:53.297Z,2.26
2018-02-15T22:55:19.137Z,2.34
2018-02-15T22:57:45.085Z,2.30
2018-02-15T23:00:10.930Z,2.29
2018-02-15T23:02:37.422Z,2.29
2018-02-15T23:05:03.333Z,2.30
2018-02-15T23:07:29.181Z,2.34
2018-02-15T23:09:55.025Z,2.33
2018-02-15T23:12:20.920Z,2.33
2018-02-15T23:14:46.773Z,2.33
2018-02-15T23:17:12.617Z,2.35
2018-02-15T23:19:38.509Z,2.30
2018-02-15T23:22:04.356Z,2.35
2018-02-15T23:24:30.200Z,2.35
2018-02-15T23:26:56.090Z,2.34
2018-02-15T23:29:22.003Z,2.34
2018-02-15T23:31:47.848Z,2.30
2018-02-15T23:34:13.810Z,2.29
2018-02-15T23:36:39.648Z,2.27
2018-02-15T23:39:05.485Z,2.32
2018-02-15T23:41:31.408Z,2.33
2018-02-15T23:43:57.245Z,2.34
2018-02-15T23:46:23.081Z,2.34
2018-02-15T23:48:48.968Z,2.35
2018-02-15T23:51:14.815Z,2.40
2018-02-15T23:53:40.834Z,2.40
2018-02-15T23:56:06.731Z,2.45
2018-02-15T23:58:32.589Z,2.44
